West Hartford, Connecticut
Current Conditions -  °F | °C
As of 4:53 AM on Sunday 26 Oct 2014 (Local Time) from KHFD Reporting Station
Moderate Rain Moderate Rain  
Wind Chill: 47°   Ceiling: 5000
Heat Index: 49°   Visibility: 6mi
Dew Point: 42°   Wind: 5mph
Humidity: 77%   Direction: NA
Pressure: 29.53"   Gusts: NA
Location:  41.76°N, 72.74°W
Report Text: KHFD 260853Z AUTO VRB04KT 6SM RA BKN050 BKN090 OVC110 09/06 A2953 RMK AO2 PK WND 30038/0824 WSHFT 0816 RAB27 SLP000 P0004 60004 T00940056 53005
Loading
Personal Weather Stations






























Interactive Weather Map New forecast layout! Learn more

10-Day Weather Forecast

Advertisements
Track Severe Weather on mobile